createdAt,value
2019-05-13T00:00:34.078Z,73.30
2019-05-13T00:03:03.623Z,74.10
2019-05-13T00:05:33.981Z,74.00
2019-05-13T00:08:03.429Z,73.70
2019-05-13T00:10:34.723Z,73.40
2019-05-13T00:13:04.476Z,73.60
2019-05-13T00:15:34.135Z,73.70
2019-05-13T00:18:03.963Z,73.60
2019-05-13T00:20:33.859Z,74.10
2019-05-13T00:23:03.882Z,74.60
2019-05-13T00:25:33.913Z,74.60
2019-05-13T00:28:04.058Z,74.80
2019-05-13T00:30:34.461Z,74.90
2019-05-13T00:33:03.722Z,74.80
2019-05-13T00:35:33.921Z,74.70
2019-05-13T00:38:03.860Z,74.70
2019-05-13T00:40:33.870Z,74.80
2019-05-13T00:43:03.917Z,74.20
2019-05-13T00:45:33.899Z,74.30
2019-05-13T00:48:04.520Z,75.10
2019-05-13T00:50:34.363Z,75.10
2019-05-13T00:53:04.387Z,74.40
2019-05-13T00:55:34.567Z,75.10
2019-05-13T00:58:04.791Z,74.80
2019-05-13T01:00:34.359Z,75.80
2019-05-13T01:03:04.001Z,75.40
2019-05-13T01:05:34.017Z,75.70
2019-05-13T01:08:04.224Z,75.70
2019-05-13T01:10:34.818Z,75.50
2019-05-13T01:13:04.750Z,75.30
2019-05-13T01:15:34.517Z,75.30
2019-05-13T01:18:03.922Z,75.60
2019-05-13T01:20:34.405Z,75.80
2019-05-13T01:23:03.960Z,75.60
2019-05-13T01:25:34.326Z,75.40
2019-05-13T01:28:04.481Z,75.50
2019-05-13T01:30:34.795Z,76.30
2019-05-13T01:33:04.343Z,76.60
2019-05-13T01:35:34.257Z,76.50
2019-05-13T01:38:04.598Z,76.60
2019-05-13T01:40:34.904Z,76.70
2019-05-13T01:43:04.030Z,76.80
2019-05-13T01:45:33.904Z,76.60
2019-05-13T01:48:07.065Z,76.30
2019-05-13T01:50:34.075Z,76.40
2019-05-13T01:53:04.266Z,76.60
2019-05-13T01:55:33.995Z,76.80
2019-05-13T01:58:04.241Z,76.60
2019-05-13T02:00:35.484Z,76.20
2019-05-13T02:03:04.334Z,77.10
2019-05-13T02:05:34.021Z,77.60
2019-05-13T02:08:04.453Z,75.30
2019-05-13T02:10:54.437Z,75.50
2019-05-13T02:13:24.667Z,76.50
2019-05-13T02:15:55.186Z,76.80
2019-05-13T02:18:24.844Z,77.00
2019-05-13T02:20:55.460Z,77.20
2019-05-13T02:23:24.420Z,77.50
2019-05-13T02:25:54.413Z,77.50
2019-05-13T02:28:24.801Z,77.50
2019-05-13T02:30:55.750Z,78.40
2019-05-13T02:33:24.455Z,77.70
2019-05-13T02:35:53.640Z,77.80
2019-05-13T02:38:26.408Z,78.50
2019-05-13T02:40:53.647Z,78.40
2019-05-13T02:43:23.672Z,78.70
2019-05-13T02:45:54.106Z,78.90
2019-05-13T02:48:23.886Z,78.10
2019-05-13T02:50:54.080Z,79.00
2019-05-13T02:53:23.997Z,79.00
2019-05-13T02:55:53.802Z,79.20
2019-05-13T02:58:24.177Z,79.30
2019-05-13T03:00:53.802Z,79.20
2019-05-13T03:03:23.640Z,79.10
2019-05-13T03:05:53.419Z,79.20
2019-05-13T03:08:35.331Z,79.90
2019-05-13T03:10:53.790Z,79.50
2019-05-13T03:13:23.661Z,79.40
2019-05-13T03:16:13.211Z,79.30
2019-05-13T03:18:43.513Z,79.20
2019-05-13T03:21:13.123Z,79.10
2019-05-13T03:23:43.991Z,79.10
2019-05-13T03:26:13.030Z,79.10
2019-05-13T03:28:43.683Z,78.50
2019-05-13T03:31:17.211Z,79.20
2019-05-13T03:33:46.215Z,78.60
2019-05-13T03:36:16.235Z,79.20
2019-05-13T03:38:59.728Z,79.30
2019-05-13T03:41:17.966Z,78.90
2019-05-13T03:43:48.234Z,80.00
2019-05-13T03:46:23.070Z,79.80
2019-05-13T03:48:56.795Z,79.90
2019-05-13T03:51:25.484Z,79.20
2019-05-13T03:53:54.266Z,79.80
2019-05-13T03:56:23.888Z,79.70
2019-05-13T03:58:53.814Z,79.90
2019-05-13T04:01:23.166Z,79.90
2019-05-13T04:03:52.884Z,79.90
2019-05-13T04:06:23.221Z,80.10
2019-05-13T04:08:53.971Z,80.30
2019-05-13T04:11:23.466Z,80.30
2019-05-13T04:13:52.939Z,80.50
2019-05-13T04:16:23.624Z,80.50
2019-05-13T04:18:53.614Z,80.40
2019-05-13T04:21:23.293Z,80.30
2019-05-13T04:23:53.261Z,79.80
2019-05-13T04:26:23.642Z,80.50
2019-05-13T04:28:52.815Z,80.60
2019-05-13T04:31:22.923Z,80.40
2019-05-13T04:33:53.113Z,80.40
2019-05-13T04:36:23.638Z,80.60
2019-05-13T04:38:53.061Z,80.80
2019-05-13T04:41:23.205Z,80.90
2019-05-13T04:43:54.167Z,80.80
2019-05-13T04:46:23.091Z,81.70
2019-05-13T04:48:53.087Z,81.10
2019-05-13T04:51:22.815Z,81.00
2019-05-13T04:53:56.129Z,81.80
2019-05-13T04:56:22.571Z,80.90
2019-05-13T04:58:52.860Z,80.90
2019-05-13T05:01:55.335Z,81.10
2019-05-13T05:04:33.941Z,81.10
2019-05-13T05:07:15.742Z,80.40
2019-05-13T05:10:26.550Z,80.80
2019-05-13T05:13:05.714Z,80.80
2019-05-13T05:15:43.141Z,80.70
2019-05-13T05:18:37.320Z,80.70
2019-05-13T05:21:24.088Z,80.90
2019-05-13T05:24:12.191Z,81.10
2019-05-13T05:27:15.249Z,81.00
2019-05-13T05:30:21.836Z,80.90
2019-05-13T05:33:21.395Z,80.70
2019-05-13T05:36:05.162Z,80.40
2019-05-13T05:38:54.374Z,80.20
2019-05-13T05:41:24.950Z,79.20
2019-05-13T05:43:55.424Z,78.90
2019-05-13T05:46:24.953Z,79.60
2019-05-13T05:48:55.717Z,79.70
2019-05-13T05:51:25.333Z,78.70
2019-05-13T05:53:56.069Z,79.30
2019-05-13T05:56:26.729Z,79.20
2019-05-13T05:58:56.761Z,78.80
2019-05-13T06:01:25.361Z,78.30
2019-05-13T06:03:56.302Z,78.10
2019-05-13T06:06:24.765Z,78.10
2019-05-13T06:08:53.220Z,77.60
2019-05-13T06:11:22.352Z,77.10
2019-05-13T06:13:53.964Z,76.90
2019-05-13T06:16:21.883Z,77.00
2019-05-13T06:18:52.270Z,75.70
2019-05-13T06:21:21.611Z,76.10
2019-05-13T06:23:51.859Z,75.80
2019-05-13T06:26:23.622Z,75.90
2019-05-13T06:28:52.080Z,75.70
2019-05-13T06:31:21.528Z,75.10
2019-05-13T06:33:51.427Z,74.90
2019-05-13T06:36:22.168Z,73.90
2019-05-13T06:38:51.310Z,74.30
2019-05-13T06:41:22.000Z,74.00
2019-05-13T06:43:52.433Z,73.70
2019-05-13T06:46:21.865Z,73.20
2019-05-13T06:48:52.086Z,72.90
2019-05-13T06:51:22.203Z,72.70
2019-05-13T06:53:51.780Z,72.20
2019-05-13T06:56:21.758Z,71.90
2019-05-13T06:58:52.031Z,71.60
2019-05-13T07:01:21.731Z,71.00
2019-05-13T07:03:51.812Z,70.70
2019-05-13T07:06:21.670Z,69.30
2019-05-13T07:08:52.121Z,68.50
2019-05-13T07:11:24.140Z,68.70
2019-05-13T07:13:51.814Z,68.20
2019-05-13T07:16:22.351Z,69.10
2019-05-13T07:18:52.297Z,68.40
2019-05-13T07:21:22.859Z,68.00
2019-05-13T07:23:54.709Z,67.80
2019-05-13T07:26:22.154Z,68.20
2019-05-13T07:28:52.384Z,68.10
2019-05-13T07:31:21.913Z,67.40
2019-05-13T07:33:51.750Z,66.80
2019-05-13T07:36:22.546Z,67.00
2019-05-13T07:38:52.142Z,66.90
2019-05-13T07:41:35.216Z,67.50
2019-05-13T07:43:51.777Z,67.00
2019-05-13T07:46:21.755Z,66.90
2019-05-13T07:48:52.076Z,66.30
2019-05-13T07:51:22.188Z,65.90
2019-05-13T07:53:51.767Z,65.50
2019-05-13T07:56:21.837Z,65.10
2019-05-13T07:58:52.318Z,64.90
2019-05-13T08:01:22.076Z,64.20
2019-05-13T08:03:51.714Z,63.80
2019-05-13T08:06:21.941Z,63.10
2019-05-13T08:08:52.317Z,62.30
2019-05-13T08:11:22.389Z,62.60
2019-05-13T08:13:51.917Z,62.90
2019-05-13T08:16:22.362Z,62.40
2019-05-13T08:18:52.394Z,61.90
2019-05-13T08:21:21.566Z,62.50
2019-05-13T08:23:52.445Z,62.70
2019-05-13T08:26:21.703Z,62.40
2019-05-13T08:29:00.235Z,61.80
2019-05-13T08:31:21.657Z,60.70
2019-05-13T08:33:51.926Z,61.10
2019-05-13T08:36:23.308Z,61.20
2019-05-13T08:38:51.975Z,60.90
2019-05-13T08:41:23.466Z,59.70
2019-05-13T08:43:52.422Z,60.60
2019-05-13T08:46:21.824Z,59.80
2019-05-13T08:48:51.796Z,59.70
2019-05-13T08:51:22.058Z,60.20
2019-05-13T08:53:51.673Z,59.40
2019-05-13T08:56:21.803Z,58.90
2019-05-13T08:58:52.127Z,58.20
2019-05-13T09:01:22.731Z,57.80
2019-05-13T09:03:52.262Z,58.20
2019-05-13T09:06:22.086Z,58.10
2019-05-13T09:08:53.761Z,57.90
2019-05-13T09:11:22.246Z,58.10
2019-05-13T09:13:51.627Z,58.40
2019-05-13T09:16:21.463Z,57.70
2019-05-13T09:18:52.126Z,58.20
2019-05-13T09:21:22.498Z,58.40
2019-05-13T09:23:51.603Z,57.90
2019-05-13T09:26:22.543Z,57.30
2019-05-13T09:28:52.145Z,57.40
2019-05-13T09:31:22.109Z,57.30
2019-05-13T09:33:52.094Z,56.00
2019-05-13T09:36:21.766Z,56.10
2019-05-13T09:38:52.543Z,56.80
2019-05-13T09:41:21.538Z,55.80
2019-05-13T09:43:51.419Z,54.90
2019-05-13T09:46:22.375Z,55.00
2019-05-13T09:48:51.674Z,54.50
2019-05-13T09:51:21.644Z,53.40
2019-05-13T09:53:51.953Z,52.80
2019-05-13T09:56:22.364Z,52.30
2019-05-13T09:58:51.393Z,53.10
2019-05-13T10:01:22.558Z,52.00
2019-05-13T10:03:54.770Z,50.80
2019-05-13T10:06:22.233Z,49.90
2019-05-13T10:08:52.724Z,50.60
2019-05-13T10:11:21.844Z,51.70
2019-05-13T10:13:51.606Z,51.00
2019-05-13T10:16:22.077Z,50.10
2019-05-13T10:18:52.435Z,50.10
2019-05-13T10:21:21.834Z,50.10
2019-05-13T10:23:52.285Z,50.20
2019-05-13T10:26:22.624Z,49.60
2019-05-13T10:28:51.544Z,49.10
2019-05-13T10:31:22.012Z,49.70
2019-05-13T10:33:51.572Z,49.70
2019-05-13T10:36:22.275Z,48.90
2019-05-13T10:38:52.148Z,48.80
2019-05-13T10:41:22.210Z,49.10
2019-05-13T10:43:52.004Z,48.90
2019-05-13T10:46:22.074Z,47.70
2019-05-13T10:48:52.605Z,47.30
2019-05-13T10:51:23.964Z,47.20
2019-05-13T10:53:53.483Z,47.70
2019-05-13T10:56:22.880Z,47.90
2019-05-13T10:58:53.352Z,48.50
2019-05-13T11:01:22.697Z,49.10
2019-05-13T11:03:52.395Z,48.50
2019-05-13T11:06:21.883Z,47.30
2019-05-13T11:08:53.158Z,46.90
2019-05-13T11:11:22.092Z,46.60
2019-05-13T11:13:58.769Z,46.80
2019-05-13T11:16:22.571Z,46.50
2019-05-13T11:18:51.898Z,46.40
2019-05-13T11:21:22.218Z,46.40
2019-05-13T11:23:51.828Z,46.00
2019-05-13T11:26:21.974Z,45.90
2019-05-13T11:28:52.295Z,45.30
2019-05-13T11:31:22.354Z,45.00
2019-05-13T11:33:52.116Z,45.30
2019-05-13T11:36:23.267Z,45.10
2019-05-13T11:38:53.140Z,44.70
2019-05-13T11:41:22.947Z,45.30
2019-05-13T11:44:09.216Z,45.40
2019-05-13T11:46:22.730Z,45.50
2019-05-13T11:48:52.118Z,44.80
2019-05-13T11:51:24.220Z,46.00
2019-05-13T11:53:52.507Z,46.00
2019-05-13T11:56:22.999Z,44.20
2019-05-13T11:58:53.289Z,43.30
2019-05-13T12:01:22.935Z,42.80
2019-05-13T12:03:53.060Z,43.50
2019-05-13T12:06:23.288Z,42.60
2019-05-13T12:08:55.296Z,42.40
2019-05-13T12:11:22.944Z,42.90
2019-05-13T12:13:52.741Z,43.40
2019-05-13T12:16:22.849Z,43.60
2019-05-13T12:18:52.843Z,41.40
2019-05-13T12:21:21.726Z,41.40
2019-05-13T12:23:52.772Z,40.80
2019-05-13T12:26:23.437Z,39.90
2019-05-13T12:28:53.589Z,40.20
2019-05-13T12:31:22.203Z,41.80
2019-05-13T12:33:52.206Z,43.00
2019-05-13T12:36:23.496Z,44.40
2019-05-13T12:38:53.925Z,45.70
2019-05-13T12:41:23.203Z,46.90
2019-05-13T12:43:54.064Z,45.30
2019-05-13T12:46:24.703Z,44.70
2019-05-13T12:48:52.481Z,45.60
2019-05-13T12:51:22.643Z,46.90
2019-05-13T12:53:52.882Z,47.90
2019-05-13T12:56:23.590Z,47.10
2019-05-13T12:58:52.445Z,47.60
2019-05-13T13:01:23.838Z,49.00
2019-05-13T13:03:52.033Z,49.60
2019-05-13T13:06:30.357Z,49.70
2019-05-13T13:08:51.008Z,50.50
2019-05-13T13:11:22.784Z,49.80
2019-05-13T13:13:58.989Z,49.70
2019-05-13T13:16:21.275Z,49.80
2019-05-13T13:18:52.154Z,50.30
2019-05-13T13:21:23.601Z,49.90
2019-05-13T13:23:51.633Z,50.30
2019-05-13T13:26:21.804Z,50.30
2019-05-13T13:28:55.118Z,49.90
2019-05-13T13:31:25.094Z,49.80
2019-05-13T13:33:55.139Z,49.30
2019-05-13T13:36:24.137Z,49.70
2019-05-13T13:38:56.257Z,49.90
2019-05-13T13:41:23.416Z,49.50
2019-05-13T13:43:53.848Z,50.10
2019-05-13T13:46:35.983Z,50.30
2019-05-13T13:48:55.195Z,50.30
2019-05-13T13:51:26.565Z,50.50
2019-05-13T13:53:56.515Z,50.70
2019-05-13T13:56:25.644Z,51.10
2019-05-13T13:58:54.279Z,51.20
2019-05-13T14:01:27.311Z,50.70
2019-05-13T14:03:53.340Z,50.50
2019-05-13T14:07:22.767Z,51.00
2019-05-13T14:08:52.261Z,51.70
2019-05-13T14:11:23.176Z,52.00
2019-05-13T14:13:51.852Z,51.60
2019-05-13T14:16:29.602Z,51.60
2019-05-13T14:18:52.317Z,51.10
2019-05-13T14:21:21.798Z,51.40
2019-05-13T14:23:52.076Z,52.30
2019-05-13T14:26:22.190Z,53.00
2019-05-13T14:28:53.675Z,52.30
2019-05-13T14:31:21.671Z,51.80
2019-05-13T14:33:52.074Z,51.20
2019-05-13T14:36:23.054Z,51.50
2019-05-13T14:38:52.656Z,52.00
2019-05-13T14:41:22.038Z,52.30
2019-05-13T14:43:51.710Z,52.60
2019-05-13T14:46:27.094Z,52.50
2019-05-13T14:48:50.929Z,52.80
2019-05-13T14:51:21.727Z,53.10
2019-05-13T14:53:51.777Z,53.20
2019-05-13T14:56:22.172Z,53.10
2019-05-13T14:58:52.126Z,52.40
2019-05-13T15:01:22.788Z,52.70
2019-05-13T15:03:52.838Z,53.20
2019-05-13T15:06:22.214Z,53.20
2019-05-13T15:08:52.632Z,53.30
2019-05-13T15:11:22.059Z,53.20
2019-05-13T15:13:51.799Z,52.60
2019-05-13T15:16:22.382Z,53.60
2019-05-13T15:18:52.511Z,54.00
2019-05-13T15:21:21.463Z,54.00
2019-05-13T15:23:51.719Z,53.40
2019-05-13T15:26:22.195Z,53.00
2019-05-13T15:28:51.864Z,52.20
2019-05-13T15:31:22.336Z,52.30
2019-05-13T15:33:52.352Z,53.00
2019-05-13T15:36:22.521Z,53.10
2019-05-13T15:38:51.946Z,52.90
2019-05-13T15:41:21.130Z,52.60
2019-05-13T15:43:51.949Z,53.00
2019-05-13T15:46:21.970Z,52.40
2019-05-13T15:48:51.442Z,52.20
2019-05-13T15:51:22.143Z,52.10
2019-05-13T15:53:51.726Z,52.60
2019-05-13T15:56:22.453Z,51.90
2019-05-13T15:58:52.968Z,52.10
2019-05-13T16:01:22.906Z,52.10
2019-05-13T16:03:52.504Z,51.50
2019-05-13T16:06:21.318Z,51.50
2019-05-13T16:08:51.882Z,51.40
2019-05-13T16:11:21.922Z,51.50
2019-05-13T16:13:51.774Z,52.00
2019-05-13T16:16:22.005Z,52.40
2019-05-13T16:18:51.529Z,52.60
2019-05-13T16:21:20.530Z,52.00
2019-05-13T16:23:49.063Z,51.40
2019-05-13T16:26:19.348Z,51.40
2019-05-13T16:28:47.978Z,51.10
2019-05-13T16:31:16.601Z,51.30
2019-05-13T16:33:45.377Z,51.60
2019-05-13T16:36:13.992Z,52.10
2019-05-13T16:38:42.562Z,52.80
2019-05-13T16:41:12.521Z,52.10
2019-05-13T16:43:42.546Z,52.40
2019-05-13T16:46:12.125Z,52.40
2019-05-13T16:48:41.754Z,52.00
2019-05-13T16:51:12.480Z,51.50
2019-05-13T16:53:42.125Z,51.50
2019-05-13T16:56:25.688Z,51.60
2019-05-13T16:58:41.966Z,51.60
2019-05-13T17:01:11.680Z,51.90
2019-05-13T17:03:41.399Z,51.10
2019-05-13T17:06:12.520Z,51.80
2019-05-13T17:08:42.396Z,51.20
2019-05-13T17:11:11.887Z,51.20
2019-05-13T17:13:42.151Z,51.20
2019-05-13T17:16:11.002Z,51.10
2019-05-13T17:18:41.743Z,50.90
2019-05-13T17:21:10.352Z,49.70
2019-05-13T17:23:38.893Z,49.80
2019-05-13T17:26:07.849Z,49.70
2019-05-13T17:28:38.009Z,49.70
2019-05-13T17:31:06.879Z,49.10
2019-05-13T17:33:35.586Z,49.20
2019-05-13T17:36:04.173Z,49.90
2019-05-13T17:38:32.814Z,50.10
2019-05-13T17:41:02.560Z,50.00
2019-05-13T17:43:32.029Z,49.90
2019-05-13T17:46:01.666Z,50.20
2019-05-13T17:48:32.799Z,50.00
2019-05-13T17:51:01.417Z,49.80
2019-05-13T17:53:32.273Z,50.20
2019-05-13T17:56:02.365Z,50.30
2019-05-13T17:58:31.385Z,50.10
2019-05-13T18:01:01.906Z,50.30
2019-05-13T18:03:32.122Z,50.40
2019-05-13T18:06:02.515Z,50.50
2019-05-13T18:08:32.068Z,50.40
2019-05-13T18:11:02.392Z,50.40
2019-05-13T18:13:31.822Z,49.70
2019-05-13T18:16:02.410Z,50.50
2019-05-13T18:18:40.589Z,50.80
2019-05-13T18:21:01.783Z,50.40
2019-05-13T18:23:30.362Z,50.90
2019-05-13T18:26:01.727Z,51.00
2019-05-13T18:28:31.418Z,51.50
2019-05-13T18:31:01.726Z,51.80
2019-05-13T18:33:31.979Z,51.90
2019-05-13T18:36:01.945Z,52.40
2019-05-13T18:38:31.279Z,53.00
2019-05-13T18:41:01.691Z,53.30
2019-05-13T18:43:32.163Z,53.40
2019-05-13T18:46:02.074Z,53.40
2019-05-13T18:48:32.279Z,53.40
2019-05-13T18:51:01.494Z,53.20
2019-05-13T18:53:32.083Z,53.80
2019-05-13T18:56:01.989Z,54.00
2019-05-13T18:58:31.626Z,55.10
2019-05-13T19:01:01.473Z,55.70
2019-05-13T19:03:32.196Z,56.10
2019-05-13T19:06:00.391Z,56.60
2019-05-13T19:08:28.852Z,57.10
2019-05-13T19:10:58.022Z,57.50
2019-05-13T19:13:26.551Z,57.90
2019-05-13T19:15:55.161Z,58.10
2019-05-13T19:18:23.840Z,58.60
2019-05-13T19:20:52.446Z,59.10
2019-05-13T19:23:21.061Z,59.20
2019-05-13T19:25:51.368Z,59.40
2019-05-13T19:28:22.128Z,59.70
2019-05-13T19:30:51.571Z,59.80
2019-05-13T19:33:22.078Z,59.90
2019-05-13T19:35:51.845Z,60.00
2019-05-13T19:38:21.211Z,60.30
2019-05-13T19:40:50.220Z,60.60
2019-05-13T19:43:18.705Z,60.70
2019-05-13T19:45:47.275Z,60.70
2019-05-13T19:48:15.786Z,60.60
2019-05-13T19:50:44.476Z,60.50
2019-05-13T19:53:13.007Z,60.00
2019-05-13T19:55:41.706Z,59.40
2019-05-13T19:58:12.467Z,58.60
2019-05-13T20:00:42.399Z,57.30
2019-05-13T20:03:12.069Z,56.50
2019-05-13T20:05:41.524Z,55.70
2019-05-13T20:08:10.316Z,54.90
2019-05-13T20:10:39.089Z,54.40
2019-05-13T20:13:07.562Z,54.10
2019-05-13T20:15:36.071Z,54.10
2019-05-13T20:18:04.724Z,54.10
2019-05-13T20:20:34.381Z,54.10
2019-05-13T20:23:02.921Z,54.10
2019-05-13T20:25:31.427Z,54.20
2019-05-13T20:28:02.144Z,54.50
2019-05-13T20:30:30.429Z,55.00
2019-05-13T20:32:59.146Z,55.20
2019-05-13T20:35:27.610Z,55.40
2019-05-13T20:37:56.147Z,55.50
2019-05-13T20:40:24.773Z,55.90
2019-05-13T20:42:53.347Z,56.20
2019-05-13T20:45:22.414Z,57.20
2019-05-13T20:47:51.221Z,56.70
2019-05-13T20:50:21.718Z,57.20
2019-05-13T20:52:51.632Z,57.40
2019-05-13T20:55:22.063Z,57.70
2019-05-13T20:57:53.116Z,57.70
2019-05-13T21:00:21.434Z,58.10
2019-05-13T21:02:51.728Z,58.80
2019-05-13T21:05:21.717Z,59.10
2019-05-13T21:07:51.564Z,59.30
2019-05-13T21:10:21.675Z,59.60
2019-05-13T21:12:51.436Z,60.20
2019-05-13T21:15:20.220Z,60.60
2019-05-13T21:17:48.906Z,60.40
2019-05-13T21:20:22.038Z,60.50
2019-05-13T21:22:48.075Z,60.70
2019-05-13T21:25:16.870Z,61.10
2019-05-13T21:27:45.452Z,61.70
2019-05-13T21:30:14.502Z,62.20
2019-05-13T21:32:43.346Z,62.30
2019-05-13T21:35:12.152Z,62.70
2019-05-13T21:37:40.636Z,63.20
2019-05-13T21:40:11.195Z,63.60
2019-05-13T21:42:41.987Z,63.90
2019-05-13T21:45:11.225Z,64.00
2019-05-13T21:47:40.156Z,64.10
2019-05-13T21:50:11.323Z,65.10
2019-05-13T21:52:41.860Z,64.80
2019-05-13T21:55:11.378Z,65.00
2019-05-13T21:57:41.543Z,64.40
2019-05-13T22:00:13.170Z,65.20
2019-05-13T22:02:41.666Z,65.30
2019-05-13T22:05:11.648Z,65.40
2019-05-13T22:07:42.126Z,65.80
2019-05-13T22:10:11.079Z,66.10
2019-05-13T22:12:41.500Z,66.30
2019-05-13T22:15:10.268Z,66.50
2019-05-13T22:17:38.732Z,66.60
2019-05-13T22:20:08.121Z,66.70
2019-05-13T22:22:36.673Z,66.80
2019-05-13T22:25:07.523Z,67.10
2019-05-13T22:27:36.082Z,67.20
2019-05-13T22:30:06.580Z,68.10
2019-05-13T22:32:35.258Z,67.60
2019-05-13T22:35:04.561Z,67.90
2019-05-13T22:37:33.047Z,68.10
2019-05-13T22:40:04.111Z,68.30
2019-05-13T22:42:32.332Z,68.70
2019-05-13T22:45:02.824Z,68.80
2019-05-13T22:47:31.571Z,69.10
2019-05-13T22:50:02.077Z,69.30
2019-05-13T22:52:31.285Z,69.40
2019-05-13T22:55:02.369Z,69.40
2019-05-13T22:57:31.346Z,69.60
2019-05-13T23:00:00.061Z,69.80
2019-05-13T23:02:28.826Z,70.20
2019-05-13T23:04:57.547Z,70.30
2019-05-13T23:07:26.101Z,70.20
2019-05-13T23:09:54.879Z,70.50
2019-05-13T23:12:24.580Z,70.40
2019-05-13T23:14:53.035Z,70.70
2019-05-13T23:17:21.730Z,71.10
2019-05-13T23:19:52.157Z,71.30
2019-05-13T23:22:20.574Z,71.50
2019-05-13T23:24:49.269Z,70.60
2019-05-13T23:27:17.762Z,71.50
2019-05-13T23:29:46.280Z,71.60
2019-05-13T23:32:14.924Z,71.80
2019-05-13T23:34:43.402Z,71.80
2019-05-13T23:37:12.006Z,72.00
2019-05-13T23:39:41.656Z,72.10
2019-05-13T23:42:12.175Z,72.20
2019-05-13T23:44:41.574Z,72.30
2019-05-13T23:47:11.427Z,72.40
2019-05-13T23:49:42.171Z,72.60
2019-05-13T23:52:11.682Z,72.80
2019-05-13T23:54:42.411Z,72.70
2019-05-13T23:57:11.770Z,72.70
2019-05-13T23:59:42.011Z,73.50
